sensor_id;sensor_type;location;lat;lon;timestamp;pressure;altitude;pressure_sealevel;temperature;humidity
63700;BME280;49845;47.130;142.766;2023-02-19T00:00:21;100164.38;;;-8.32;71.42
63700;BME280;49845;47.130;142.766;2023-02-19T00:02:52;100170.06;;;-8.36;71.65
63700;BME280;49845;47.130;142.766;2023-02-19T00:05:24;100164.53;;;-8.14;72.01
63700;BME280;49845;47.130;142.766;2023-02-19T00:07:54;100164.47;;;-7.69;72.88
63700;BME280;49845;47.130;142.766;2023-02-19T00:10:27;100170.41;;;-7.69;70.96
63700;BME280;49845;47.130;142.766;2023-02-19T00:12:57;100163.59;;;-7.70;69.83
63700;BME280;49845;47.130;142.766;2023-02-19T00:15:30;100156.25;;;-7.65;68.89
63700;BME280;49845;47.130;142.766;2023-02-19T00:18:01;100158.16;;;-7.61;68.62
63700;BME280;49845;47.130;142.766;2023-02-19T00:20:31;100150.06;;;-7.54;68.07
63700;BME280;49845;47.130;142.766;2023-02-19T00:23:02;100148.94;;;-7.75;66.14
63700;BME280;49845;47.130;142.766;2023-02-19T00:25:37;100150.78;;;-7.88;65.53
63700;BME280;49845;47.130;142.766;2023-02-19T00:28:07;100144.59;;;-7.93;65.99
63700;BME280;49845;47.130;142.766;2023-02-19T00:30:38;100155.66;;;-7.45;66.48
63700;BME280;49845;47.130;142.766;2023-02-19T00:33:09;100108.75;;;-7.51;65.34
63700;BME280;49845;47.130;142.766;2023-02-19T00:35:39;100136.19;;;-7.13;64.96
63700;BME280;49845;47.130;142.766;2023-02-19T00:38:10;100145.84;;;-6.89;64.42
63700;BME280;49845;47.130;142.766;2023-02-19T00:40:42;100139.97;;;-7.05;63.37
63700;BME280;49845;47.130;142.766;2023-02-19T00:43:13;100120.31;;;-7.56;62.82
63700;BME280;49845;47.130;142.766;2023-02-19T00:45:43;100134.78;;;-7.39;63.89
63700;BME280;49845;47.130;142.766;2023-02-19T00:48:14;100053.31;;;-7.76;64.55
63700;BME280;49845;47.130;142.766;2023-02-19T00:50:45;100128.56;;;-7.13;65.32
63700;BME280;49845;47.130;142.766;2023-02-19T00:53:15;100122.50;;;-7.31;65.30
63700;BME280;49845;47.130;142.766;2023-02-19T00:55:47;100131.06;;;-7.29;66.89
63700;BME280;49845;47.130;142.766;2023-02-19T00:58:18;100136.78;;;-6.84;68.51
63700;BME280;49845;47.130;142.766;2023-02-19T01:00:48;100124.97;;;-6.49;68.62
63700;BME280;49845;47.130;142.766;2023-02-19T01:03:19;100115.91;;;-6.44;67.47
63700;BME280;49845;47.130;142.766;2023-02-19T01:05:51;100119.13;;;-6.65;66.77
63700;BME280;49845;47.130;142.766;2023-02-19T01:08:22;100121.78;;;-6.80;67.71
63700;BME280;49845;47.130;142.766;2023-02-19T01:10:54;100103.53;;;-6.89;66.94
63700;BME280;49845;47.130;142.766;2023-02-19T01:13:25;100111.72;;;-6.78;66.98
63700;BME280;49845;47.130;142.766;2023-02-19T01:16:02;100108.47;;;-6.41;67.49
63700;BME280;49845;47.130;142.766;2023-02-19T01:18:34;100127.34;;;-6.36;66.04
63700;BME280;49845;47.130;142.766;2023-02-19T01:21:05;100110.19;;;-6.40;65.46
63700;BME280;49845;47.130;142.766;2023-02-19T01:23:37;100113.38;;;-6.44;66.08
63700;BME280;49845;47.130;142.766;2023-02-19T01:26:13;100108.31;;;-6.26;65.99
63700;BME280;49845;47.130;142.766;2023-02-19T01:28:44;100106.06;;;-6.38;65.40
63700;BME280;49845;47.130;142.766;2023-02-19T01:31:17;100061.03;;;-6.23;65.62
63700;BME280;49845;47.130;142.766;2023-02-19T01:33:49;100092.91;;;-6.12;64.32
63700;BME280;49845;47.130;142.766;2023-02-19T01:36:20;100089.84;;;-6.04;64.15
63700;BME280;49845;47.130;142.766;2023-02-19T01:38:51;100099.13;;;-5.87;64.24
63700;BME280;49845;47.130;142.766;2023-02-19T01:41:24;100081.31;;;-5.87;64.24
63700;BME280;49845;47.130;142.766;2023-02-19T01:43:57;100086.19;;;-5.74;63.88
63700;BME280;49845;47.130;142.766;2023-02-19T01:46:29;100080.34;;;-5.89;63.94
63700;BME280;49845;47.130;142.766;2023-02-19T01:49:02;100074.59;;;-6.04;64.87
63700;BME280;49845;47.130;142.766;2023-02-19T01:51:36;100078.22;;;-6.17;64.18
63700;BME280;49845;47.130;142.766;2023-02-19T01:54:10;100053.94;;;-6.64;64.21
63700;BME280;49845;47.130;142.766;2023-02-19T01:56:45;100068.16;;;-6.68;63.97
63700;BME280;49845;47.130;142.766;2023-02-19T01:59:17;100059.13;;;-6.79;64.00
63700;BME280;49845;47.130;142.766;2023-02-19T02:01:48;100055.97;;;-6.75;64.71
63700;BME280;49845;47.130;142.766;2023-02-19T02:04:19;100020.97;;;-6.81;65.02
63700;BME280;49845;47.130;142.766;2023-02-19T02:06:52;100033.56;;;-6.66;65.73
63700;BME280;49845;47.130;142.766;2023-02-19T02:09:27;100039.44;;;-6.31;66.12
63700;BME280;49845;47.130;142.766;2023-02-19T02:12:16;100043.50;;;-6.17;66.09
63700;BME280;49845;47.130;142.766;2023-02-19T02:14:47;100036.50;;;-6.03;66.45
63700;BME280;49845;47.130;142.766;2023-02-19T02:17:25;100037.91;;;-5.90;66.61
63700;BME280;49845;47.130;142.766;2023-02-19T02:20:13;100022.94;;;-5.65;67.61
63700;BME280;49845;47.130;142.766;2023-02-19T02:22:53;100023.47;;;-5.72;67.38
63700;BME280;49845;47.130;142.766;2023-02-19T02:25:50;100015.13;;;-6.07;67.60
63700;BME280;49845;47.130;142.766;2023-02-19T02:31:42;99998.59;;;-6.34;68.51
63700;BME280;49845;47.130;142.766;2023-02-19T02:34:16;99988.31;;;-6.73;69.15
63700;BME280;49845;47.130;142.766;2023-02-19T02:36:51;100014.72;;;-6.52;69.28
63700;BME280;49845;47.130;142.766;2023-02-19T02:39:25;100018.66;;;-6.40;70.00
63700;BME280;49845;47.130;142.766;2023-02-19T02:41:57;100015.91;;;-6.45;70.35
63700;BME280;49845;47.130;142.766;2023-02-19T02:44:45;100006.19;;;-6.54;70.24
63700;BME280;49845;47.130;142.766;2023-02-19T02:47:38;99999.19;;;-6.58;71.23
63700;BME280;49845;47.130;142.766;2023-02-19T02:50:16;99989.47;;;-6.48;71.73
63700;BME280;49845;47.130;142.766;2023-02-19T02:52:50;99971.59;;;-6.32;70.97
63700;BME280;49845;47.130;142.766;2023-02-19T02:55:44;99983.91;;;-6.22;71.33
63700;BME280;49845;47.130;142.766;2023-02-19T02:58:17;99972.97;;;-6.21;70.82
63700;BME280;49845;47.130;142.766;2023-02-19T03:00:54;99977.19;;;-6.02;71.17
63700;BME280;49845;47.130;142.766;2023-02-19T03:03:46;99966.50;;;-5.95;71.15
63700;BME280;49845;47.130;142.766;2023-02-19T03:06:19;99975.00;;;-5.55;71.33
63700;BME280;49845;47.130;142.766;2023-02-19T03:08:54;99967.72;;;-5.27;70.76
63700;BME280;49845;47.130;142.766;2023-02-19T03:11:25;99968.13;;;-4.96;69.93
63700;BME280;49845;47.130;142.766;2023-02-19T03:14:17;99970.59;;;-4.98;69.27
63700;BME280;49845;47.130;142.766;2023-02-19T03:17:09;99946.13;;;-5.15;69.69
63700;BME280;49845;47.130;142.766;2023-02-19T03:20:07;99957.53;;;-5.27;70.31
63700;BME280;49845;47.130;142.766;2023-02-19T03:22:41;99949.44;;;-5.37;70.76
63700;BME280;49845;47.130;142.766;2023-02-19T03:25:17;99953.66;;;-5.38;71.51
63700;BME280;49845;47.130;142.766;2023-02-19T03:28:07;99879.63;;;-5.83;71.09
63700;BME280;49845;47.130;142.766;2023-02-19T03:30:42;99946.78;;;-5.60;71.92
63700;BME280;49845;47.130;142.766;2023-02-19T03:33:15;99912.69;;;-6.04;72.82
63700;BME280;49845;47.130;142.766;2023-02-19T03:35:52;99949.81;;;-5.88;73.11
63700;BME280;49845;47.130;142.766;2023-02-19T03:38:29;99943.38;;;-5.80;72.62
63700;BME280;49845;47.130;142.766;2023-02-19T03:41:05;99946.31;;;-5.90;73.11
63700;BME280;49845;47.130;142.766;2023-02-19T03:43:41;99933.53;;;-5.92;73.65
63700;BME280;49845;47.130;142.766;2023-02-19T03:46:18;99918.78;;;-6.00;73.07
63700;BME280;49845;47.130;142.766;2023-02-19T03:48:54;99895.72;;;-5.84;72.46
63700;BME280;49845;47.130;142.766;2023-02-19T03:51:31;99933.59;;;-5.71;71.68
63700;BME280;49845;47.130;142.766;2023-02-19T03:54:11;99923.84;;;-6.00;72.44
63700;BME280;49845;47.130;142.766;2023-02-19T03:56:48;99927.97;;;-6.22;73.25
63700;BME280;49845;47.130;142.766;2023-02-19T03:59:23;99927.28;;;-6.37;73.44
63700;BME280;49845;47.130;142.766;2023-02-19T04:01:59;99917.78;;;-6.41;73.58
63700;BME280;49845;47.130;142.766;2023-02-19T04:04:32;99924.13;;;-6.51;74.13
63700;BME280;49845;47.130;142.766;2023-02-19T04:07:06;99926.97;;;-6.81;74.12
63700;BME280;49845;47.130;142.766;2023-02-19T04:09:40;99883.75;;;-7.34;74.50
63700;BME280;49845;47.130;142.766;2023-02-19T04:12:12;99927.59;;;-7.03;74.60
63700;BME280;49845;47.130;142.766;2023-02-19T04:14:48;99921.81;;;-6.82;74.53
63700;BME280;49845;47.130;142.766;2023-02-19T04:17:25;99934.88;;;-6.92;73.40
63700;BME280;49845;47.130;142.766;2023-02-19T04:20:00;99827.97;;;-7.85;73.13
63700;BME280;49845;47.130;142.766;2023-02-19T04:22:35;99926.94;;;-7.51;74.02
63700;BME280;49845;47.130;142.766;2023-02-19T04:25:07;99934.25;;;-7.73;74.26
63700;BME280;49845;47.130;142.766;2023-02-19T04:27:38;99922.06;;;-8.13;74.10
63700;BME280;49845;47.130;142.766;2023-02-19T04:30:15;99922.50;;;-8.04;74.74
63700;BME280;49845;47.130;142.766;2023-02-19T04:32:45;99941.56;;;-7.96;73.86
63700;BME280;49845;47.130;142.766;2023-02-19T04:35:16;99938.22;;;-7.95;73.52
63700;BME280;49845;47.130;142.766;2023-02-19T04:37:48;99943.28;;;-7.95;74.16
63700;BME280;49845;47.130;142.766;2023-02-19T04:40:19;99947.00;;;-7.72;74.25
63700;BME280;49845;47.130;142.766;2023-02-19T04:42:49;99950.59;;;-7.85;72.89
63700;BME280;49845;47.130;142.766;2023-02-19T04:45:20;99942.81;;;-8.04;73.12
63700;BME280;49845;47.130;142.766;2023-02-19T04:47:50;99940.03;;;-8.09;73.35
63700;BME280;49845;47.130;142.766;2023-02-19T04:50:21;99949.00;;;-8.15;72.98
63700;BME280;49845;47.130;142.766;2023-02-19T04:52:53;99950.53;;;-8.34;72.75
63700;BME280;49845;47.130;142.766;2023-02-19T04:55:24;99949.31;;;-8.57;73.57
63700;BME280;49845;47.130;142.766;2023-02-19T04:57:54;99954.94;;;-8.62;73.90
63700;BME280;49845;47.130;142.766;2023-02-19T05:00:25;99954.25;;;-8.75;74.17
63700;BME280;49845;47.130;142.766;2023-02-19T05:02:55;99944.31;;;-8.86;74.75
63700;BME280;49845;47.130;142.766;2023-02-19T05:05:26;99952.53;;;-8.76;74.73
63700;BME280;49845;47.130;142.766;2023-02-19T05:07:58;99934.56;;;-8.95;74.44
63700;BME280;49845;47.130;142.766;2023-02-19T05:10:29;99953.56;;;-8.87;74.87
63700;BME280;49845;47.130;142.766;2023-02-19T05:13:01;99959.34;;;-8.90;74.51
63700;BME280;49845;47.130;142.766;2023-02-19T05:15:31;99959.00;;;-8.81;74.97
63700;BME280;49845;47.130;142.766;2023-02-19T05:18:02;99956.03;;;-9.03;74.70
63700;BME280;49845;47.130;142.766;2023-02-19T05:20:33;99957.94;;;-8.99;75.03
63700;BME280;49845;47.130;142.766;2023-02-19T05:23:05;99961.28;;;-9.00;75.09
63700;BME280;49845;47.130;142.766;2023-02-19T05:25:36;99965.47;;;-9.16;75.50
63700;BME280;49845;47.130;142.766;2023-02-19T05:28:07;99968.25;;;-9.26;75.61
63700;BME280;49845;47.130;142.766;2023-02-19T05:30:48;99949.38;;;-9.61;76.68
63700;BME280;49845;47.130;142.766;2023-02-19T05:33:20;99976.53;;;-9.43;77.03
63700;BME280;49845;47.130;142.766;2023-02-19T05:35:52;99969.25;;;-9.52;76.35
63700;BME280;49845;47.130;142.766;2023-02-19T05:38:24;99972.06;;;-9.47;76.50
63700;BME280;49845;47.130;142.766;2023-02-19T05:40:55;99972.63;;;-9.38;76.72
63700;BME280;49845;47.130;142.766;2023-02-19T05:43:25;99974.19;;;-9.40;76.24
63700;BME280;49845;47.130;142.766;2023-02-19T05:45:57;99963.69;;;-9.46;76.60
63700;BME280;49845;47.130;142.766;2023-02-19T05:48:28;99973.81;;;-9.46;76.92
63700;BME280;49845;47.130;142.766;2023-02-19T05:51:01;99975.75;;;-9.42;76.65
63700;BME280;49845;47.130;142.766;2023-02-19T05:53:34;99931.56;;;-9.77;76.60
63700;BME280;49845;47.130;142.766;2023-02-19T05:56:20;99974.66;;;-9.61;76.91
63700;BME280;49845;47.130;142.766;2023-02-19T05:58:53;99983.03;;;-9.62;77.63
63700;BME280;49845;47.130;142.766;2023-02-19T06:01:26;99975.84;;;-9.69;77.74
63700;BME280;49845;47.130;142.766;2023-02-19T06:03:57;99971.88;;;-9.65;77.92
63700;BME280;49845;47.130;142.766;2023-02-19T06:06:27;99987.25;;;-9.47;77.68
63700;BME280;49845;47.130;142.766;2023-02-19T06:08:59;99984.78;;;-9.61;77.60
63700;BME280;49845;47.130;142.766;2023-02-19T06:11:30;99976.81;;;-9.67;78.35
63700;BME280;49845;47.130;142.766;2023-02-19T06:14:00;99984.97;;;-9.58;78.45
63700;BME280;49845;47.130;142.766;2023-02-19T06:16:31;99972.91;;;-9.62;78.29
63700;BME280;49845;47.130;142.766;2023-02-19T06:19:02;99966.84;;;-9.50;78.56
63700;BME280;49845;47.130;142.766;2023-02-19T06:21:33;99976.44;;;-9.45;78.32
63700;BME280;49845;47.130;142.766;2023-02-19T06:24:06;99972.22;;;-9.59;78.19
63700;BME280;49845;47.130;142.766;2023-02-19T06:26:37;99971.69;;;-9.53;78.72
63700;BME280;49845;47.130;142.766;2023-02-19T06:29:08;99987.66;;;-9.55;77.95
63700;BME280;49845;47.130;142.766;2023-02-19T06:31:39;99977.34;;;-9.72;78.57
63700;BME280;49845;47.130;142.766;2023-02-19T06:34:09;99987.53;;;-9.71;79.05
63700;BME280;49845;47.130;142.766;2023-02-19T06:36:40;99981.94;;;-9.80;79.96
63700;BME280;49845;47.130;142.766;2023-02-19T06:39:12;99979.25;;;-9.96;80.12
63700;BME280;49845;47.130;142.766;2023-02-19T06:41:43;99981.91;;;-9.95;80.31
63700;BME280;49845;47.130;142.766;2023-02-19T06:44:13;99973.66;;;-10.06;80.85
63700;BME280;49845;47.130;142.766;2023-02-19T06:46:44;99993.75;;;-9.94;80.88
63700;BME280;49845;47.130;142.766;2023-02-19T06:49:14;99988.00;;;-9.91;80.45
63700;BME280;49845;47.130;142.766;2023-02-19T06:51:45;99982.88;;;-10.06;80.43
63700;BME280;49845;47.130;142.766;2023-02-19T06:54:17;99992.69;;;-9.98;80.20
63700;BME280;49845;47.130;142.766;2023-02-19T06:56:48;99989.94;;;-9.87;80.70
63700;BME280;49845;47.130;142.766;2023-02-19T06:59:18;99987.81;;;-9.94;80.45
63700;BME280;49845;47.130;142.766;2023-02-19T07:01:49;99985.50;;;-10.05;80.59
63700;BME280;49845;47.130;142.766;2023-02-19T07:04:19;99990.19;;;-10.11;80.78
63700;BME280;49845;47.130;142.766;2023-02-19T07:06:50;99977.97;;;-10.18;81.07
63700;BME280;49845;47.130;142.766;2023-02-19T07:09:22;99967.47;;;-10.24;81.20
63700;BME280;49845;47.130;142.766;2023-02-19T07:11:53;99982.63;;;-10.24;81.60
63700;BME280;49845;47.130;142.766;2023-02-19T07:14:23;99985.59;;;-10.31;81.76
63700;BME280;49845;47.130;142.766;2023-02-19T07:16:54;99982.78;;;-10.36;82.06
63700;BME280;49845;47.130;142.766;2023-02-19T07:19:24;99987.34;;;-10.44;82.15
63700;BME280;49845;47.130;142.766;2023-02-19T07:21:55;99993.00;;;-10.48;82.26
63700;BME280;49845;47.130;142.766;2023-02-19T07:24:27;99983.19;;;-10.56;82.86
63700;BME280;49845;47.130;142.766;2023-02-19T07:26:58;99989.31;;;-10.53;83.19
63700;BME280;49845;47.130;142.766;2023-02-19T07:29:28;99987.00;;;-10.50;82.90
63700;BME280;49845;47.130;142.766;2023-02-19T07:31:59;99982.31;;;-10.57;82.86
63700;BME280;49845;47.130;142.766;2023-02-19T07:34:29;99981.97;;;-10.63;83.02
63700;BME280;49845;47.130;142.766;2023-02-19T07:37:00;99989.91;;;-10.70;83.05
63700;BME280;49845;47.130;142.766;2023-02-19T07:39:32;99975.53;;;-10.84;83.15
63700;BME280;49845;47.130;142.766;2023-02-19T07:42:02;99964.78;;;-10.95;83.37
63700;BME280;49845;47.130;142.766;2023-02-19T07:44:36;99968.53;;;-11.02;83.85
63700;BME280;49845;47.130;142.766;2023-02-19T07:47:06;99983.09;;;-10.98;83.90
63700;BME280;49845;47.130;142.766;2023-02-19T07:49:37;99983.00;;;-10.99;83.85
63700;BME280;49845;47.130;142.766;2023-02-19T07:52:07;99962.00;;;-11.25;84.15
63700;BME280;49845;47.130;142.766;2023-02-19T07:54:39;99993.38;;;-11.08;84.32
63700;BME280;49845;47.130;142.766;2023-02-19T07:57:10;99993.94;;;-11.12;84.48
63700;BME280;49845;47.130;142.766;2023-02-19T07:59:40;99983.00;;;-11.13;84.76
63700;BME280;49845;47.130;142.766;2023-02-19T08:02:15;99994.81;;;-11.12;84.39
63700;BME280;49845;47.130;142.766;2023-02-19T08:05:03;99995.31;;;-11.17;84.37
63700;BME280;49845;47.130;142.766;2023-02-19T08:07:40;99987.63;;;-11.19;84.41
63700;BME280;49845;47.130;142.766;2023-02-19T08:10:12;99913.16;;;-11.65;84.61
63700;BME280;49845;47.130;142.766;2023-02-19T08:13:00;99979.38;;;-11.30;84.74
63700;BME280;49845;47.130;142.766;2023-02-19T08:15:52;99972.34;;;-11.34;85.14
63700;BME280;49845;47.130;142.766;2023-02-19T08:18:40;99984.41;;;-11.30;85.14
63700;BME280;49845;47.130;142.766;2023-02-19T08:21:11;99970.81;;;-11.32;86.07
63700;BME280;49845;47.130;142.766;2023-02-19T08:23:41;99980.91;;;-11.32;85.83
63700;BME280;49845;47.130;142.766;2023-02-19T08:26:17;99982.63;;;-11.31;85.64
63700;BME280;49845;47.130;142.766;2023-02-19T08:28:51;99988.34;;;-11.33;85.89
63700;BME280;49845;47.130;142.766;2023-02-19T08:31:22;99996.16;;;-11.30;86.21
63700;BME280;49845;47.130;142.766;2023-02-19T08:33:53;99995.84;;;-11.35;86.11
63700;BME280;49845;47.130;142.766;2023-02-19T08:36:24;99990.59;;;-11.38;86.55
63700;BME280;49845;47.130;142.766;2023-02-19T08:38:57;100004.94;;;-11.37;86.82
63700;BME280;49845;47.130;142.766;2023-02-19T08:41:33;99992.34;;;-11.37;86.79
63700;BME280;49845;47.130;142.766;2023-02-19T08:44:04;100002.44;;;-11.37;87.25
63700;BME280;49845;47.130;142.766;2023-02-19T08:46:39;99999.13;;;-11.36;87.35
63700;BME280;49845;47.130;142.766;2023-02-19T08:49:10;99948.28;;;-11.55;87.39
63700;BME280;49845;47.130;142.766;2023-02-19T08:51:41;99986.72;;;-11.33;87.07
63700;BME280;49845;47.130;142.766;2023-02-19T08:54:14;100006.31;;;-11.29;87.18
63700;BME280;49845;47.130;142.766;2023-02-19T08:56:49;100001.06;;;-11.32;87.03
63700;BME280;49845;47.130;142.766;2023-02-19T08:59:20;100002.63;;;-11.34;87.28
63700;BME280;49845;47.130;142.766;2023-02-19T09:01:53;100000.88;;;-11.35;87.34
63700;BME280;49845;47.130;142.766;2023-02-19T09:04:26;99994.31;;;-11.33;87.90
63700;BME280;49845;47.130;142.766;2023-02-19T09:06:57;99997.13;;;-11.28;87.66
63700;BME280;49845;47.130;142.766;2023-02-19T09:09:36;99998.44;;;-11.33;87.60
63700;BME280;49845;47.130;142.766;2023-02-19T09:12:11;100005.94;;;-11.35;87.70
63700;BME280;49845;47.130;142.766;2023-02-19T09:14:42;100009.63;;;-11.30;87.86
63700;BME280;49845;47.130;142.766;2023-02-19T09:17:13;100008.28;;;-11.24;87.64
63700;BME280;49845;47.130;142.766;2023-02-19T09:19:45;100013.13;;;-11.27;87.70
63700;BME280;49845;47.130;142.766;2023-02-19T09:22:18;100008.94;;;-11.27;87.67
63700;BME280;49845;47.130;142.766;2023-02-19T09:24:52;100004.59;;;-11.30;88.11
63700;BME280;49845;47.130;142.766;2023-02-19T09:27:26;100008.09;;;-11.27;88.00
63700;BME280;49845;47.130;142.766;2023-02-19T09:30:02;100012.91;;;-11.31;88.14
63700;BME280;49845;47.130;142.766;2023-02-19T09:32:33;100003.03;;;-11.27;87.93
63700;BME280;49845;47.130;142.766;2023-02-19T09:35:04;100004.97;;;-11.23;88.09
63700;BME280;49845;47.130;142.766;2023-02-19T09:37:35;99996.84;;;-11.19;88.16
63700;BME280;49845;47.130;142.766;2023-02-19T09:40:09;99994.13;;;-11.22;88.07
63700;BME280;49845;47.130;142.766;2023-02-19T09:42:47;100007.59;;;-11.22;88.06
63700;BME280;49845;47.130;142.766;2023-02-19T09:45:22;99999.94;;;-11.23;88.07
63700;BME280;49845;47.130;142.766;2023-02-19T09:47:53;99999.72;;;-11.26;88.47
63700;BME280;49845;47.130;142.766;2023-02-19T09:50:31;99995.47;;;-11.27;88.47
63700;BME280;49845;47.130;142.766;2023-02-19T09:53:09;99986.16;;;-11.29;88.87
63700;BME280;49845;47.130;142.766;2023-02-19T09:55:46;99990.44;;;-11.27;88.97
63700;BME280;49845;47.130;142.766;2023-02-19T09:58:22;99990.75;;;-11.23;88.69
63700;BME280;49845;47.130;142.766;2023-02-19T10:00:56;99979.16;;;-11.33;88.50
63700;BME280;49845;47.130;142.766;2023-02-19T10:03:30;99987.13;;;-11.26;88.70
63700;BME280;49845;47.130;142.766;2023-02-19T10:06:07;99983.72;;;-11.27;88.60
63700;BME280;49845;47.130;142.766;2023-02-19T10:08:50;99985.47;;;-11.26;88.67
63700;BME280;49845;47.130;142.766;2023-02-19T10:11:22;99986.38;;;-11.25;88.54
63700;BME280;49845;47.130;142.766;2023-02-19T10:14:03;99970.63;;;-11.35;88.59
63700;BME280;49845;47.130;142.766;2023-02-19T10:16:40;99978.50;;;-11.30;88.75
63700;BME280;49845;47.130;142.766;2023-02-19T10:19:13;99999.34;;;-11.33;88.82
63700;BME280;49845;47.130;142.766;2023-02-19T10:21:44;99984.78;;;-11.23;88.53
63700;BME280;49845;47.130;142.766;2023-02-19T10:24:21;99981.72;;;-11.19;88.42
63700;BME280;49845;47.130;142.766;2023-02-19T10:26:53;99985.22;;;-11.17;88.55
63700;BME280;49845;47.130;142.766;2023-02-19T10:29:29;99978.69;;;-11.14;88.26
63700;BME280;49845;47.130;142.766;2023-02-19T10:32:12;99875.50;;;-11.76;87.87
63700;BME280;49845;47.130;142.766;2023-02-19T10:34:46;99986.38;;;-11.12;87.95
63700;BME280;49845;47.130;142.766;2023-02-19T10:37:18;99964.16;;;-11.18;87.80
63700;BME280;49845;47.130;142.766;2023-02-19T10:39:49;99971.63;;;-11.06;88.02
63700;BME280;49845;47.130;142.766;2023-02-19T10:42:22;99967.94;;;-11.11;87.53
63700;BME280;49845;47.130;142.766;2023-02-19T10:44:59;99975.91;;;-11.05;87.91
63700;BME280;49845;47.130;142.766;2023-02-19T10:47:31;99926.59;;;-11.40;87.54
63700;BME280;49845;47.130;142.766;2023-02-19T10:50:03;99970.69;;;-11.08;87.71
63700;BME280;49845;47.130;142.766;2023-02-19T10:52:34;99977.47;;;-11.07;87.56
63700;BME280;49845;47.130;142.766;2023-02-19T10:55:23;99946.88;;;-11.25;87.62
63700;BME280;49845;47.130;142.766;2023-02-19T10:57:57;99928.50;;;-11.36;87.45
63700;BME280;49845;47.130;142.766;2023-02-19T11:03:38;99974.56;;;-11.00;87.60
63700;BME280;49845;47.130;142.766;2023-02-19T11:06:11;99966.19;;;-10.99;87.60
63700;BME280;49845;47.130;142.766;2023-02-19T11:08:52;99971.47;;;-10.82;87.87
63700;BME280;49845;47.130;142.766;2023-02-19T11:11:30;99973.50;;;-10.77;87.30
63700;BME280;49845;47.130;142.766;2023-02-19T11:14:04;99960.75;;;-10.78;87.17
63700;BME280;49845;47.130;142.766;2023-02-19T11:16:42;99956.69;;;-10.90;86.64
63700;BME280;49845;47.130;142.766;2023-02-19T11:19:28;99910.88;;;-11.22;86.75
63700;BME280;49845;47.130;142.766;2023-02-19T11:22:01;99948.72;;;-10.96;87.01
63700;BME280;49845;47.130;142.766;2023-02-19T11:24:33;99947.06;;;-10.69;87.77
63700;BME280;49845;47.130;142.766;2023-02-19T11:27:20;99946.59;;;-10.63;87.14
63700;BME280;49845;47.130;142.766;2023-02-19T11:30:34;99948.75;;;-10.82;86.54
63700;BME280;49845;47.130;142.766;2023-02-19T11:33:31;99950.66;;;-10.78;86.71
63700;BME280;49845;47.130;142.766;2023-02-19T11:36:24;99912.06;;;-11.04;86.25
63700;BME280;49845;47.130;142.766;2023-02-19T11:38:59;99859.66;;;-11.35;86.55
63700;BME280;49845;47.130;142.766;2023-02-19T11:45:31;99936.69;;;-10.87;86.77
63700;BME280;49845;47.130;142.766;2023-02-19T11:48:17;99933.41;;;-10.86;86.61
63700;BME280;49845;47.130;142.766;2023-02-19T11:51:35;99927.09;;;-10.92;86.38
63700;BME280;49845;47.130;142.766;2023-02-19T11:54:34;99863.84;;;-11.35;86.19
63700;BME280;49845;47.130;142.766;2023-02-19T11:57:20;99913.81;;;-11.03;86.60
63700;BME280;49845;47.130;142.766;2023-02-19T11:59:58;99924.00;;;-10.88;86.62
63700;BME280;49845;47.130;142.766;2023-02-19T12:02:42;99924.97;;;-10.73;86.73
63700;BME280;49845;47.130;142.766;2023-02-19T12:05:22;99917.69;;;-10.68;86.42
63700;BME280;49845;47.130;142.766;2023-02-19T12:08:23;99919.22;;;-10.97;85.74
63700;BME280;49845;47.130;142.766;2023-02-19T12:11:14;99918.66;;;-11.06;86.12
63700;BME280;49845;47.130;142.766;2023-02-19T12:14:15;99912.72;;;-11.07;86.26
63700;BME280;49845;47.130;142.766;2023-02-19T12:16:56;99911.28;;;-11.16;86.21
63700;BME280;49845;47.130;142.766;2023-02-19T12:19:38;99894.41;;;-11.17;86.90
63700;BME280;49845;47.130;142.766;2023-02-19T12:22:24;99916.41;;;-11.01;86.97
63700;BME280;49845;47.130;142.766;2023-02-19T12:25:32;99925.25;;;-10.95;86.97
63700;BME280;49845;47.130;142.766;2023-02-19T12:28:30;99915.91;;;-10.96;87.08
63700;BME280;49845;47.130;142.766;2023-02-19T12:31:23;99915.72;;;-10.99;86.80
63700;BME280;49845;47.130;142.766;2023-02-19T12:34:28;99913.13;;;-11.00;86.71
63700;BME280;49845;47.130;142.766;2023-02-19T12:37:20;99909.44;;;-11.05;87.16
63700;BME280;49845;47.130;142.766;2023-02-19T12:40:12;99907.38;;;-11.11;86.91
63700;BME280;49845;47.130;142.766;2023-02-19T12:42:55;99906.03;;;-11.19;87.46
63700;BME280;49845;47.130;142.766;2023-02-19T12:45:34;99907.59;;;-11.21;87.79
63700;BME280;49845;47.130;142.766;2023-02-19T12:48:13;99901.94;;;-11.31;88.48
63700;BME280;49845;47.130;142.766;2023-02-19T12:50:49;99895.16;;;-11.32;88.57
63700;BME280;49845;47.130;142.766;2023-02-19T12:53:39;99902.53;;;-11.21;88.43
63700;BME280;49845;47.130;142.766;2023-02-19T12:56:15;99907.38;;;-11.24;88.61
63700;BME280;49845;47.130;142.766;2023-02-19T12:58:52;99899.03;;;-11.23;88.87
63700;BME280;49845;47.130;142.766;2023-02-19T13:01:36;99890.13;;;-11.32;89.06
63700;BME280;49845;47.130;142.766;2023-02-19T13:04:21;99900.63;;;-11.25;89.21
63700;BME280;49845;47.130;142.766;2023-02-19T13:07:00;99874.38;;;-11.41;89.26
63700;BME280;49845;47.130;142.766;2023-02-19T13:09:40;99890.41;;;-11.27;89.30
63700;BME280;49845;47.130;142.766;2023-02-19T13:12:22;99887.03;;;-11.27;89.78
63700;BME280;49845;47.130;142.766;2023-02-19T13:14:58;99888.94;;;-11.23;89.58
63700;BME280;49845;47.130;142.766;2023-02-19T13:17:36;99880.44;;;-11.25;89.58
63700;BME280;49845;47.130;142.766;2023-02-19T13:20:17;99880.44;;;-11.25;89.77
63700;BME280;49845;47.130;142.766;2023-02-19T13:22:57;99878.66;;;-11.26;89.88
63700;BME280;49845;47.130;142.766;2023-02-19T13:25:57;99866.94;;;-11.26;89.96